Aviation Digital Data Service (ADDS)

Output produced by METARs form (2349 UTC 24 February 2018)
found at http://aviationweather.gov/adds/metars/
 
KDFW 242325Z 2500/2606 33007KT P6SM BKN250 
     FM250600 10006KT 4SM BR FEW250 
     FM251600 14007KT P6SM BKN100